sensor_id;sensor_type;location;lat;lon;timestamp;P1;durP1;ratioP1;P2;durP2;ratioP2
69625;SDS011;56847;51.984;5.088;2024-02-28T00:00:06;19.42;;;13.48;;
69625;SDS011;56847;51.984;5.088;2024-02-28T00:02:34;20.52;;;14.38;;
69625;SDS011;56847;51.984;5.088;2024-02-28T00:05:01;20.90;;;13.13;;
69625;SDS011;56847;51.984;5.088;2024-02-28T00:07:28;19.13;;;13.00;;
69625;SDS011;56847;51.984;5.088;2024-02-28T00:09:57;21.92;;;14.90;;
69625;SDS011;56847;51.984;5.088;2024-02-28T00:12:25;23.55;;;15.48;;
69625;SDS011;56847;51.984;5.088;2024-02-28T00:14:52;23.58;;;15.57;;
69625;SDS011;56847;51.984;5.088;2024-02-28T00:17:20;19.70;;;13.93;;
69625;SDS011;56847;51.984;5.088;2024-02-28T00:19:47;19.88;;;14.23;;
69625;SDS011;56847;51.984;5.088;2024-02-28T00:22:15;23.67;;;14.82;;
69625;SDS011;56847;51.984;5.088;2024-02-28T00:24:42;20.13;;;14.98;;
69625;SDS011;56847;51.984;5.088;2024-02-28T00:27:09;24.80;;;16.60;;
69625;SDS011;56847;51.984;5.088;2024-02-28T00:29:36;40.83;;;14.97;;
69625;SDS011;56847;51.984;5.088;2024-02-28T00:32:03;24.23;;;16.08;;
69625;SDS011;56847;51.984;5.088;2024-02-28T00:34:31;26.40;;;15.90;;
69625;SDS011;56847;51.984;5.088;2024-02-28T00:36:58;24.08;;;15.35;;
69625;SDS011;56847;51.984;5.088;2024-02-28T00:39:27;26.40;;;16.48;;
69625;SDS011;56847;51.984;5.088;2024-02-28T00:41:55;27.17;;;15.33;;
69625;SDS011;56847;51.984;5.088;2024-02-28T00:44:22;23.23;;;14.98;;
69625;SDS011;56847;51.984;5.088;2024-02-28T00:46:49;25.92;;;16.45;;
69625;SDS011;56847;51.984;5.088;2024-02-28T00:49:16;25.52;;;15.15;;
69625;SDS011;56847;51.984;5.088;2024-02-28T00:51:45;27.55;;;16.85;;
69625;SDS011;56847;51.984;5.088;2024-02-28T00:54:13;25.20;;;15.57;;
69625;SDS011;56847;51.984;5.088;2024-02-28T00:56:41;30.60;;;16.45;;
69625;SDS011;56847;51.984;5.088;2024-02-28T00:59:11;27.27;;;16.33;;
69625;SDS011;56847;51.984;5.088;2024-02-28T01:01:39;24.77;;;16.08;;
69625;SDS011;56847;51.984;5.088;2024-02-28T01:04:09;29.30;;;16.90;;
69625;SDS011;56847;51.984;5.088;2024-02-28T01:06:36;22.73;;;15.33;;
69625;SDS011;56847;51.984;5.088;2024-02-28T01:09:04;26.58;;;15.48;;
69625;SDS011;56847;51.984;5.088;2024-02-28T01:11:33;27.58;;;15.73;;
69625;SDS011;56847;51.984;5.088;2024-02-28T01:14:00;22.67;;;15.68;;
69625;SDS011;56847;51.984;5.088;2024-02-28T01:16:27;23.13;;;14.95;;
69625;SDS011;56847;51.984;5.088;2024-02-28T01:18:55;25.53;;;14.87;;
69625;SDS011;56847;51.984;5.088;2024-02-28T01:21:23;23.30;;;15.05;;
69625;SDS011;56847;51.984;5.088;2024-02-28T01:23:50;30.10;;;16.98;;
69625;SDS011;56847;51.984;5.088;2024-02-28T01:26:18;25.70;;;16.02;;
69625;SDS011;56847;51.984;5.088;2024-02-28T01:28:48;27.77;;;16.55;;
69625;SDS011;56847;51.984;5.088;2024-02-28T01:31:15;25.43;;;16.17;;
69625;SDS011;56847;51.984;5.088;2024-02-28T01:33:42;24.48;;;15.73;;
69625;SDS011;56847;51.984;5.088;2024-02-28T01:36:12;23.98;;;16.40;;
69625;SDS011;56847;51.984;5.088;2024-02-28T01:38:41;28.30;;;15.68;;
69625;SDS011;56847;51.984;5.088;2024-02-28T01:41:09;27.63;;;15.43;;
69625;SDS011;56847;51.984;5.088;2024-02-28T01:43:40;22.93;;;15.33;;
69625;SDS011;56847;51.984;5.088;2024-02-28T01:46:14;21.60;;;14.85;;
69625;SDS011;56847;51.984;5.088;2024-02-28T01:48:54;28.42;;;16.70;;
69625;SDS011;56847;51.984;5.088;2024-02-28T01:51:24;28.50;;;15.85;;
69625;SDS011;56847;51.984;5.088;2024-02-28T01:53:54;22.63;;;15.80;;
69625;SDS011;56847;51.984;5.088;2024-02-28T01:56:22;28.80;;;16.33;;
69625;SDS011;56847;51.984;5.088;2024-02-28T01:58:52;25.75;;;15.70;;
69625;SDS011;56847;51.984;5.088;2024-02-28T02:01:20;24.60;;;15.52;;
69625;SDS011;56847;51.984;5.088;2024-02-28T02:03:51;23.67;;;14.45;;
69625;SDS011;56847;51.984;5.088;2024-02-28T02:06:18;26.73;;;16.13;;
69625;SDS011;56847;51.984;5.088;2024-02-28T02:08:46;27.77;;;15.73;;
69625;SDS011;56847;51.984;5.088;2024-02-28T02:11:14;24.30;;;16.33;;
69625;SDS011;56847;51.984;5.088;2024-02-28T02:13:49;24.38;;;16.42;;
69625;SDS011;56847;51.984;5.088;2024-02-28T02:16:20;27.27;;;17.63;;
69625;SDS011;56847;51.984;5.088;2024-02-28T02:18:53;33.67;;;17.33;;
69625;SDS011;56847;51.984;5.088;2024-02-28T02:21:22;30.97;;;16.80;;
69625;SDS011;56847;51.984;5.088;2024-02-28T02:23:51;30.27;;;17.23;;
69625;SDS011;56847;51.984;5.088;2024-02-28T02:26:18;24.95;;;16.58;;
69625;SDS011;56847;51.984;5.088;2024-02-28T02:28:46;28.58;;;17.48;;
69625;SDS011;56847;51.984;5.088;2024-02-28T02:31:16;27.33;;;17.27;;
69625;SDS011;56847;51.984;5.088;2024-02-28T02:33:43;23.43;;;17.50;;
69625;SDS011;56847;51.984;5.088;2024-02-28T02:36:10;27.98;;;17.50;;
69625;SDS011;56847;51.984;5.088;2024-02-28T02:38:37;24.48;;;17.98;;
69625;SDS011;56847;51.984;5.088;2024-02-28T02:41:04;29.50;;;16.33;;
69625;SDS011;56847;51.984;5.088;2024-02-28T02:43:32;26.05;;;17.35;;
69625;SDS011;56847;51.984;5.088;2024-02-28T02:45:59;24.30;;;16.37;;
69625;SDS011;56847;51.984;5.088;2024-02-28T02:48:26;24.23;;;16.92;;
69625;SDS011;56847;51.984;5.088;2024-02-28T02:50:54;24.20;;;16.90;;
69625;SDS011;56847;51.984;5.088;2024-02-28T02:53:21;25.35;;;16.00;;
69625;SDS011;56847;51.984;5.088;2024-02-28T02:55:48;27.08;;;17.15;;
69625;SDS011;56847;51.984;5.088;2024-02-28T02:58:15;29.73;;;16.50;;
69625;SDS011;56847;51.984;5.088;2024-02-28T03:00:43;26.65;;;16.85;;
69625;SDS011;56847;51.984;5.088;2024-02-28T03:03:10;27.90;;;16.10;;
69625;SDS011;56847;51.984;5.088;2024-02-28T03:05:37;27.00;;;16.10;;
69625;SDS011;56847;51.984;5.088;2024-02-28T03:08:04;22.52;;;16.27;;
69625;SDS011;56847;51.984;5.088;2024-02-28T03:10:32;26.10;;;14.77;;
69625;SDS011;56847;51.984;5.088;2024-02-28T03:12:59;24.80;;;15.90;;
69625;SDS011;56847;51.984;5.088;2024-02-28T03:15:27;23.60;;;17.80;;
69625;SDS011;56847;51.984;5.088;2024-02-28T03:17:54;23.70;;;15.65;;
69625;SDS011;56847;51.984;5.088;2024-02-28T03:20:22;26.90;;;16.55;;
69625;SDS011;56847;51.984;5.088;2024-02-28T03:22:50;23.33;;;16.20;;
69625;SDS011;56847;51.984;5.088;2024-02-28T03:25:17;26.25;;;15.07;;
69625;SDS011;56847;51.984;5.088;2024-02-28T03:27:45;25.05;;;15.82;;
69625;SDS011;56847;51.984;5.088;2024-02-28T03:30:12;26.70;;;15.82;;
69625;SDS011;56847;51.984;5.088;2024-02-28T03:32:39;26.08;;;16.42;;
69625;SDS011;56847;51.984;5.088;2024-02-28T03:35:06;23.10;;;15.97;;
69625;SDS011;56847;51.984;5.088;2024-02-28T03:37:35;23.60;;;15.48;;
69625;SDS011;56847;51.984;5.088;2024-02-28T03:40:02;26.67;;;17.48;;
69625;SDS011;56847;51.984;5.088;2024-02-28T03:42:29;18.65;;;15.10;;
69625;SDS011;56847;51.984;5.088;2024-02-28T03:44:57;27.13;;;17.08;;
69625;SDS011;56847;51.984;5.088;2024-02-28T03:47:24;22.07;;;15.37;;
69625;SDS011;56847;51.984;5.088;2024-02-28T03:49:51;23.25;;;16.25;;
69625;SDS011;56847;51.984;5.088;2024-02-28T03:52:19;22.38;;;16.60;;
69625;SDS011;56847;51.984;5.088;2024-02-28T03:54:46;23.00;;;15.32;;
69625;SDS011;56847;51.984;5.088;2024-02-28T03:57:13;23.27;;;16.95;;
69625;SDS011;56847;51.984;5.088;2024-02-28T03:59:41;24.03;;;16.10;;
69625;SDS011;56847;51.984;5.088;2024-02-28T04:02:09;19.65;;;15.55;;
69625;SDS011;56847;51.984;5.088;2024-02-28T04:04:36;26.75;;;15.70;;
69625;SDS011;56847;51.984;5.088;2024-02-28T04:07:04;22.40;;;15.13;;
69625;SDS011;56847;51.984;5.088;2024-02-28T04:09:31;23.83;;;16.30;;
69625;SDS011;56847;51.984;5.088;2024-02-28T04:11:58;24.03;;;14.70;;
69625;SDS011;56847;51.984;5.088;2024-02-28T04:14:25;24.17;;;14.77;;
69625;SDS011;56847;51.984;5.088;2024-02-28T04:16:53;23.95;;;14.52;;
69625;SDS011;56847;51.984;5.088;2024-02-28T04:19:20;20.67;;;13.50;;
69625;SDS011;56847;51.984;5.088;2024-02-28T04:21:47;21.35;;;15.07;;
69625;SDS011;56847;51.984;5.088;2024-02-28T04:24:14;20.83;;;14.40;;
69625;SDS011;56847;51.984;5.088;2024-02-28T04:26:43;24.55;;;14.15;;
69625;SDS011;56847;51.984;5.088;2024-02-28T04:29:10;20.38;;;15.48;;
69625;SDS011;56847;51.984;5.088;2024-02-28T04:31:40;26.60;;;14.27;;
69625;SDS011;56847;51.984;5.088;2024-02-28T04:34:08;21.67;;;15.20;;
69625;SDS011;56847;51.984;5.088;2024-02-28T04:36:35;19.87;;;13.17;;
69625;SDS011;56847;51.984;5.088;2024-02-28T04:39:02;30.98;;;15.07;;
69625;SDS011;56847;51.984;5.088;2024-02-28T04:41:32;20.83;;;14.52;;
69625;SDS011;56847;51.984;5.088;2024-02-28T04:44:00;24.77;;;15.32;;
69625;SDS011;56847;51.984;5.088;2024-02-28T04:46:27;28.48;;;15.80;;
69625;SDS011;56847;51.984;5.088;2024-02-28T04:48:54;22.70;;;14.07;;
69625;SDS011;56847;51.984;5.088;2024-02-28T04:51:22;21.42;;;14.38;;
69625;SDS011;56847;51.984;5.088;2024-02-28T04:53:49;26.23;;;14.93;;
69625;SDS011;56847;51.984;5.088;2024-02-28T04:56:16;20.85;;;14.38;;
69625;SDS011;56847;51.984;5.088;2024-02-28T04:58:49;22.58;;;15.75;;
69625;SDS011;56847;51.984;5.088;2024-02-28T05:01:16;22.27;;;15.50;;
69625;SDS011;56847;51.984;5.088;2024-02-28T05:03:47;24.95;;;15.05;;
69625;SDS011;56847;51.984;5.088;2024-02-28T05:06:14;24.50;;;15.45;;
69625;SDS011;56847;51.984;5.088;2024-02-28T05:08:41;23.42;;;15.25;;
69625;SDS011;56847;51.984;5.088;2024-02-28T05:11:08;22.15;;;15.88;;
69625;SDS011;56847;51.984;5.088;2024-02-28T05:13:35;26.53;;;16.00;;
69625;SDS011;56847;51.984;5.088;2024-02-28T05:16:02;25.75;;;14.73;;
69625;SDS011;56847;51.984;5.088;2024-02-28T05:18:30;27.17;;;16.73;;
69625;SDS011;56847;51.984;5.088;2024-02-28T05:20:57;29.70;;;16.70;;
69625;SDS011;56847;51.984;5.088;2024-02-28T05:23:27;27.00;;;16.00;;
69625;SDS011;56847;51.984;5.088;2024-02-28T05:25:55;30.43;;;15.47;;
69625;SDS011;56847;51.984;5.088;2024-02-28T05:28:23;23.77;;;16.30;;
69625;SDS011;56847;51.984;5.088;2024-02-28T05:30:51;26.63;;;16.50;;
69625;SDS011;56847;51.984;5.088;2024-02-28T05:33:18;24.40;;;15.95;;
69625;SDS011;56847;51.984;5.088;2024-02-28T05:35:45;30.50;;;17.95;;
69625;SDS011;56847;51.984;5.088;2024-02-28T05:38:12;23.87;;;17.23;;
69625;SDS011;56847;51.984;5.088;2024-02-28T05:40:41;28.83;;;15.40;;
69625;SDS011;56847;51.984;5.088;2024-02-28T05:43:08;26.08;;;16.83;;
69625;SDS011;56847;51.984;5.088;2024-02-28T05:45:35;20.38;;;16.00;;
69625;SDS011;56847;51.984;5.088;2024-02-28T05:48:02;29.20;;;17.40;;
69625;SDS011;56847;51.984;5.088;2024-02-28T05:50:32;29.33;;;15.83;;
69625;SDS011;56847;51.984;5.088;2024-02-28T05:52:59;27.08;;;16.05;;
69625;SDS011;56847;51.984;5.088;2024-02-28T05:55:27;25.10;;;16.67;;
69625;SDS011;56847;51.984;5.088;2024-02-28T05:57:55;30.15;;;17.08;;
69625;SDS011;56847;51.984;5.088;2024-02-28T06:00:22;26.63;;;17.45;;
69625;SDS011;56847;51.984;5.088;2024-02-28T06:02:49;34.03;;;17.63;;
69625;SDS011;56847;51.984;5.088;2024-02-28T06:05:16;26.63;;;17.73;;
69625;SDS011;56847;51.984;5.088;2024-02-28T06:07:44;30.13;;;18.30;;
69625;SDS011;56847;51.984;5.088;2024-02-28T06:10:11;29.83;;;18.00;;
69625;SDS011;56847;51.984;5.088;2024-02-28T06:12:38;29.80;;;18.05;;
69625;SDS011;56847;51.984;5.088;2024-02-28T06:15:06;30.53;;;16.50;;
69625;SDS011;56847;51.984;5.088;2024-02-28T06:17:34;26.40;;;17.75;;
69625;SDS011;56847;51.984;5.088;2024-02-28T06:20:01;22.55;;;16.50;;
69625;SDS011;56847;51.984;5.088;2024-02-28T06:22:28;24.85;;;16.02;;
69625;SDS011;56847;51.984;5.088;2024-02-28T06:24:55;30.42;;;18.45;;
69625;SDS011;56847;51.984;5.088;2024-02-28T06:27:23;27.70;;;17.50;;
69625;SDS011;56847;51.984;5.088;2024-02-28T06:29:50;40.25;;;18.25;;
69625;SDS011;56847;51.984;5.088;2024-02-28T06:32:17;27.02;;;18.20;;
69625;SDS011;56847;51.984;5.088;2024-02-28T06:34:44;32.35;;;17.55;;
69625;SDS011;56847;51.984;5.088;2024-02-28T06:37:11;29.75;;;18.73;;
69625;SDS011;56847;51.984;5.088;2024-02-28T06:39:38;28.07;;;18.60;;
69625;SDS011;56847;51.984;5.088;2024-02-28T06:42:06;32.30;;;19.52;;
69625;SDS011;56847;51.984;5.088;2024-02-28T06:44:34;30.17;;;18.45;;
69625;SDS011;56847;51.984;5.088;2024-02-28T06:47:01;27.85;;;18.15;;
69625;SDS011;56847;51.984;5.088;2024-02-28T06:49:28;27.08;;;19.13;;
69625;SDS011;56847;51.984;5.088;2024-02-28T06:51:55;32.77;;;19.40;;
69625;SDS011;56847;51.984;5.088;2024-02-28T06:54:25;31.67;;;19.35;;
69625;SDS011;56847;51.984;5.088;2024-02-28T06:56:54;36.03;;;19.65;;
69625;SDS011;56847;51.984;5.088;2024-02-28T06:59:21;32.70;;;19.15;;
69625;SDS011;56847;51.984;5.088;2024-02-28T07:01:49;34.45;;;19.02;;
69625;SDS011;56847;51.984;5.088;2024-02-28T07:04:16;32.00;;;19.13;;
69625;SDS011;56847;51.984;5.088;2024-02-28T07:06:44;25.67;;;19.85;;
69625;SDS011;56847;51.984;5.088;2024-02-28T07:09:11;29.60;;;20.42;;
69625;SDS011;56847;51.984;5.088;2024-02-28T07:11:38;26.73;;;18.95;;
69625;SDS011;56847;51.984;5.088;2024-02-28T07:14:05;38.67;;;19.75;;
69625;SDS011;56847;51.984;5.088;2024-02-28T07:16:32;30.27;;;19.00;;
69625;SDS011;56847;51.984;5.088;2024-02-28T07:19:00;29.38;;;19.35;;
69625;SDS011;56847;51.984;5.088;2024-02-28T07:21:28;36.55;;;21.17;;
69625;SDS011;56847;51.984;5.088;2024-02-28T07:23:57;32.75;;;19.13;;
69625;SDS011;56847;51.984;5.088;2024-02-28T07:26:24;29.70;;;19.45;;
69625;SDS011;56847;51.984;5.088;2024-02-28T07:28:53;35.60;;;18.27;;
69625;SDS011;56847;51.984;5.088;2024-02-28T07:31:20;31.58;;;18.30;;
69625;SDS011;56847;51.984;5.088;2024-02-28T07:33:48;27.88;;;19.02;;
69625;SDS011;56847;51.984;5.088;2024-02-28T07:36:15;27.98;;;18.52;;
69625;SDS011;56847;51.984;5.088;2024-02-28T07:38:42;32.65;;;19.52;;
69625;SDS011;56847;51.984;5.088;2024-02-28T07:41:09;34.40;;;18.30;;
69625;SDS011;56847;51.984;5.088;2024-02-28T07:43:36;34.25;;;18.65;;
69625;SDS011;56847;51.984;5.088;2024-02-28T07:46:07;39.58;;;21.02;;
69625;SDS011;56847;51.984;5.088;2024-02-28T07:48:36;33.63;;;20.38;;
69625;SDS011;56847;51.984;5.088;2024-02-28T07:51:06;44.15;;;19.60;;
69625;SDS011;56847;51.984;5.088;2024-02-28T07:53:34;28.37;;;18.97;;
69625;SDS011;56847;51.984;5.088;2024-02-28T07:56:02;32.50;;;19.13;;
69625;SDS011;56847;51.984;5.088;2024-02-28T07:58:29;30.38;;;18.83;;
69625;SDS011;56847;51.984;5.088;2024-02-28T08:00:59;30.55;;;18.42;;
69625;SDS011;56847;51.984;5.088;2024-02-28T08:03:26;30.10;;;18.92;;
69625;SDS011;56847;51.984;5.088;2024-02-28T08:05:53;31.30;;;17.50;;
69625;SDS011;56847;51.984;5.088;2024-02-28T08:08:21;31.00;;;17.65;;
69625;SDS011;56847;51.984;5.088;2024-02-28T08:10:48;37.58;;;18.67;;
69625;SDS011;56847;51.984;5.088;2024-02-28T08:13:15;22.50;;;16.85;;
69625;SDS011;56847;51.984;5.088;2024-02-28T08:15:42;25.30;;;18.25;;
69625;SDS011;56847;51.984;5.088;2024-02-28T08:18:10;26.47;;;17.77;;
69625;SDS011;56847;51.984;5.088;2024-02-28T08:20:38;27.33;;;17.52;;
69625;SDS011;56847;51.984;5.088;2024-02-28T08:23:08;33.08;;;18.70;;
69625;SDS011;56847;51.984;5.088;2024-02-28T08:25:35;35.40;;;18.08;;
69625;SDS011;56847;51.984;5.088;2024-02-28T08:28:02;27.42;;;17.27;;
69625;SDS011;56847;51.984;5.088;2024-02-28T08:30:30;25.53;;;16.97;;
69625;SDS011;56847;51.984;5.088;2024-02-28T08:33:00;25.35;;;17.80;;
69625;SDS011;56847;51.984;5.088;2024-02-28T08:35:28;31.30;;;18.90;;
69625;SDS011;56847;51.984;5.088;2024-02-28T08:37:55;24.55;;;19.13;;
69625;SDS011;56847;51.984;5.088;2024-02-28T08:40:23;30.42;;;19.65;;
69625;SDS011;56847;51.984;5.088;2024-02-28T08:42:50;31.30;;;18.77;;
69625;SDS011;56847;51.984;5.088;2024-02-28T08:45:20;24.42;;;17.85;;
69625;SDS011;56847;51.984;5.088;2024-02-28T08:47:47;32.65;;;17.90;;
69625;SDS011;56847;51.984;5.088;2024-02-28T08:50:14;31.73;;;19.48;;
69625;SDS011;56847;51.984;5.088;2024-02-28T08:52:41;30.60;;;19.60;;
69625;SDS011;56847;51.984;5.088;2024-02-28T08:55:09;28.40;;;19.57;;
69625;SDS011;56847;51.984;5.088;2024-02-28T08:57:36;30.90;;;19.67;;
69625;SDS011;56847;51.984;5.088;2024-02-28T09:00:04;38.60;;;20.73;;
69625;SDS011;56847;51.984;5.088;2024-02-28T09:02:31;27.27;;;19.30;;
69625;SDS011;56847;51.984;5.088;2024-02-28T09:04:58;33.83;;;19.02;;
69625;SDS011;56847;51.984;5.088;2024-02-28T09:07:25;29.50;;;18.27;;
69625;SDS011;56847;51.984;5.088;2024-02-28T09:09:52;30.95;;;18.83;;
69625;SDS011;56847;51.984;5.088;2024-02-28T09:12:19;33.47;;;20.45;;
69625;SDS011;56847;51.984;5.088;2024-02-28T09:14:47;29.77;;;20.33;;
69625;SDS011;56847;51.984;5.088;2024-02-28T09:17:21;29.75;;;20.85;;
69625;SDS011;56847;51.984;5.088;2024-02-28T09:19:48;31.40;;;19.30;;
69625;SDS011;56847;51.984;5.088;2024-02-28T09:22:15;34.45;;;19.98;;
69625;SDS011;56847;51.984;5.088;2024-02-28T09:24:43;29.50;;;20.33;;
69625;SDS011;56847;51.984;5.088;2024-02-28T09:27:10;31.75;;;19.90;;
69625;SDS011;56847;51.984;5.088;2024-02-28T09:29:37;31.17;;;19.30;;
69625;SDS011;56847;51.984;5.088;2024-02-28T09:32:05;32.53;;;19.77;;
69625;SDS011;56847;51.984;5.088;2024-02-28T09:34:32;28.40;;;19.60;;
69625;SDS011;56847;51.984;5.088;2024-02-28T09:36:59;36.58;;;20.48;;
69625;SDS011;56847;51.984;5.088;2024-02-28T09:39:26;34.35;;;20.80;;
69625;SDS011;56847;51.984;5.088;2024-02-28T09:41:53;30.10;;;21.10;;
69625;SDS011;56847;51.984;5.088;2024-02-28T09:44:21;36.83;;;20.80;;
69625;SDS011;56847;51.984;5.088;2024-02-28T09:46:49;40.65;;;22.52;;
69625;SDS011;56847;51.984;5.088;2024-02-28T09:49:18;41.30;;;24.02;;
69625;SDS011;56847;51.984;5.088;2024-02-28T09:51:47;38.88;;;23.02;;
69625;SDS011;56847;51.984;5.088;2024-02-28T09:54:19;33.55;;;21.92;;
69625;SDS011;56847;51.984;5.088;2024-02-28T09:56:47;41.43;;;23.13;;
69625;SDS011;56847;51.984;5.088;2024-02-28T09:59:18;37.50;;;22.45;;
69625;SDS011;56847;51.984;5.088;2024-02-28T10:01:57;34.70;;;22.83;;
69625;SDS011;56847;51.984;5.088;2024-02-28T10:04:27;37.45;;;20.70;;
69625;SDS011;56847;51.984;5.088;2024-02-28T10:06:54;35.25;;;21.65;;
69625;SDS011;56847;51.984;5.088;2024-02-28T10:09:22;33.60;;;21.60;;
69625;SDS011;56847;51.984;5.088;2024-02-28T10:11:49;32.60;;;20.55;;
69625;SDS011;56847;51.984;5.088;2024-02-28T10:14:17;30.67;;;20.67;;
69625;SDS011;56847;51.984;5.088;2024-02-28T10:16:45;29.35;;;18.70;;
69625;SDS011;56847;51.984;5.088;2024-02-28T10:19:12;28.92;;;18.90;;
69625;SDS011;56847;51.984;5.088;2024-02-28T10:21:39;31.33;;;19.83;;
69625;SDS011;56847;51.984;5.088;2024-02-28T10:24:07;35.03;;;19.77;;
69625;SDS011;56847;51.984;5.088;2024-02-28T10:26:41;33.10;;;19.85;;
69625;SDS011;56847;51.984;5.088;2024-02-28T10:29:12;31.73;;;20.58;;
69625;SDS011;56847;51.984;5.088;2024-02-28T10:31:39;37.08;;;20.25;;
69625;SDS011;56847;51.984;5.088;2024-02-28T10:34:08;30.47;;;19.33;;
69625;SDS011;56847;51.984;5.088;2024-02-28T10:36:36;29.10;;;18.67;;
69625;SDS011;56847;51.984;5.088;2024-02-28T10:39:06;33.10;;;19.23;;
69625;SDS011;56847;51.984;5.088;2024-02-28T10:41:37;35.45;;;20.73;;
69625;SDS011;56847;51.984;5.088;2024-02-28T10:44:11;31.13;;;19.58;;
69625;SDS011;56847;51.984;5.088;2024-02-28T10:46:42;33.43;;;19.80;;
69625;SDS011;56847;51.984;5.088;2024-02-28T10:49:15;37.28;;;21.60;;
69625;SDS011;56847;51.984;5.088;2024-02-28T10:51:43;32.88;;;20.48;;
69625;SDS011;56847;51.984;5.088;2024-02-28T10:54:13;41.88;;;22.70;;
69625;SDS011;56847;51.984;5.088;2024-02-28T10:56:41;33.65;;;22.70;;
69625;SDS011;56847;51.984;5.088;2024-02-28T10:59:11;35.17;;;21.83;;
69625;SDS011;56847;51.984;5.088;2024-02-28T11:01:42;42.75;;;23.75;;
69625;SDS011;56847;51.984;5.088;2024-02-28T11:04:12;35.15;;;22.55;;
69625;SDS011;56847;51.984;5.088;2024-02-28T11:06:49;40.53;;;22.50;;
69625;SDS011;56847;51.984;5.088;2024-02-28T11:09:19;36.92;;;22.92;;
69625;SDS011;56847;51.984;5.088;2024-02-28T11:11:52;38.20;;;22.87;;
69625;SDS011;56847;51.984;5.088;2024-02-28T11:14:20;41.08;;;23.15;;
69625;SDS011;56847;51.984;5.088;2024-02-28T11:16:59;39.58;;;23.85;;
69625;SDS011;56847;51.984;5.088;2024-02-28T11:19:33;40.28;;;23.85;;
69625;SDS011;56847;51.984;5.088;2024-02-28T11:22:02;44.85;;;24.77;;
69625;SDS011;56847;51.984;5.088;2024-02-28T11:24:33;42.30;;;24.63;;
69625;SDS011;56847;51.984;5.088;2024-02-28T11:27:03;40.03;;;23.20;;
69625;SDS011;56847;51.984;5.088;2024-02-28T11:29:33;36.03;;;24.25;;
69625;SDS011;56847;51.984;5.088;2024-02-28T11:32:02;45.63;;;23.05;;
69625;SDS011;56847;51.984;5.088;2024-02-28T11:34:29;36.60;;;23.73;;
69625;SDS011;56847;51.984;5.088;2024-02-28T11:36:57;40.77;;;22.33;;
69625;SDS011;56847;51.984;5.088;2024-02-28T11:39:26;37.78;;;21.88;;
69625;SDS011;56847;51.984;5.088;2024-02-28T11:41:53;38.17;;;23.05;;
69625;SDS011;56847;51.984;5.088;2024-02-28T11:44:20;40.30;;;23.38;;
69625;SDS011;56847;51.984;5.088;2024-02-28T11:46:48;41.92;;;22.90;;
69625;SDS011;56847;51.984;5.088;2024-02-28T11:49:16;33.93;;;21.10;;
69625;SDS011;56847;51.984;5.088;2024-02-28T11:51:44;39.15;;;21.63;;
69625;SDS011;56847;51.984;5.088;2024-02-28T11:54:12;37.17;;;20.58;;
69625;SDS011;56847;51.984;5.088;2024-02-28T11:56:40;38.22;;;21.75;;
69625;SDS011;56847;51.984;5.088;2024-02-28T11:59:08;33.40;;;21.67;;
69625;SDS011;56847;51.984;5.088;2024-02-28T12:01:39;30.53;;;20.07;;
69625;SDS011;56847;51.984;5.088;2024-02-28T12:04:13;32.83;;;20.73;;
69625;SDS011;56847;51.984;5.088;2024-02-28T12:06:45;35.75;;;20.98;;
69625;SDS011;56847;51.984;5.088;2024-02-28T12:09:13;32.55;;;19.15;;
69625;SDS011;56847;51.984;5.088;2024-02-28T12:11:50;37.60;;;20.13;;
69625;SDS011;56847;51.984;5.088;2024-02-28T12:14:17;32.47;;;17.03;;
69625;SDS011;56847;51.984;5.088;2024-02-28T12:16:44;32.13;;;18.08;;
69625;SDS011;56847;51.984;5.088;2024-02-28T12:19:14;28.42;;;17.75;;
69625;SDS011;56847;51.984;5.088;2024-02-28T12:21:46;30.00;;;17.98;;
69625;SDS011;56847;51.984;5.088;2024-02-28T12:24:13;35.33;;;17.52;;
69625;SDS011;56847;51.984;5.088;2024-02-28T12:26:41;35.87;;;17.63;;
69625;SDS011;56847;51.984;5.088;2024-02-28T12:29:08;26.65;;;16.25;;
69625;SDS011;56847;51.984;5.088;2024-02-28T12:31:39;34.15;;;17.63;;
69625;SDS011;56847;51.984;5.088;2024-02-28T12:34:06;24.17;;;16.50;;
69625;SDS011;56847;51.984;5.088;2024-02-28T12:36:33;26.20;;;16.88;;
69625;SDS011;56847;51.984;5.088;2024-02-28T12:39:01;30.13;;;16.50;;
69625;SDS011;56847;51.984;5.088;2024-02-28T12:41:29;26.48;;;17.25;;
69625;SDS011;56847;51.984;5.088;2024-02-28T12:43:56;22.95;;;16.23;;
69625;SDS011;56847;51.984;5.088;2024-02-28T12:46:23;29.15;;;18.33;;
69625;SDS011;56847;51.984;5.088;2024-02-28T12:48:50;28.20;;;18.02;;
69625;SDS011;56847;51.984;5.088;2024-02-28T12:51:35;34.30;;;18.43;;
69625;SDS011;56847;51.984;5.088;2024-02-28T12:54:04;25.58;;;16.50;;
69625;SDS011;56847;51.984;5.088;2024-02-28T12:56:32;26.33;;;18.10;;
69625;SDS011;56847;51.984;5.088;2024-02-28T12:59:00;32.28;;;19.05;;
69625;SDS011;56847;51.984;5.088;2024-02-28T13:01:27;25.45;;;16.88;;
69625;SDS011;56847;51.984;5.088;2024-02-28T13:03:57;30.20;;;19.47;;
69625;SDS011;56847;51.984;5.088;2024-02-28T13:06:25;25.70;;;17.40;;
69625;SDS011;56847;51.984;5.088;2024-02-28T13:08:53;37.70;;;19.08;;
69625;SDS011;56847;51.984;5.088;2024-02-28T13:11:22;30.45;;;19.15;;
69625;SDS011;56847;51.984;5.088;2024-02-28T13:13:50;28.05;;;18.27;;
69625;SDS011;56847;51.984;5.088;2024-02-28T13:16:18;33.27;;;18.80;;
69625;SDS011;56847;51.984;5.088;2024-02-28T13:18:46;33.88;;;18.65;;
69625;SDS011;56847;51.984;5.088;2024-02-28T13:21:13;30.05;;;18.90;;
69625;SDS011;56847;51.984;5.088;2024-02-28T13:23:41;28.85;;;17.58;;
69625;SDS011;56847;51.984;5.088;2024-02-28T13:26:08;32.28;;;19.15;;
69625;SDS011;56847;51.984;5.088;2024-02-28T13:28:35;27.97;;;17.70;;
69625;SDS011;56847;51.984;5.088;2024-02-28T13:31:02;34.28;;;18.70;;
69625;SDS011;56847;51.984;5.088;2024-02-28T13:33:31;31.52;;;18.08;;
69625;SDS011;56847;51.984;5.088;2024-02-28T13:35:58;31.75;;;18.52;;
69625;SDS011;56847;51.984;5.088;2024-02-28T13:38:25;30.67;;;19.25;;
69625;SDS011;56847;51.984;5.088;2024-02-28T13:40:53;31.97;;;18.03;;
69625;SDS011;56847;51.984;5.088;2024-02-28T13:43:22;33.42;;;18.25;;
69625;SDS011;56847;51.984;5.088;2024-02-28T13:45:49;27.70;;;18.85;;
69625;SDS011;56847;51.984;5.088;2024-02-28T13:48:27;28.77;;;18.10;;
69625;SDS011;56847;51.984;5.088;2024-02-28T13:51:00;30.48;;;19.33;;
69625;SDS011;56847;51.984;5.088;2024-02-28T13:53:31;32.07;;;17.13;;
69625;SDS011;56847;51.984;5.088;2024-02-28T13:55:58;30.25;;;18.75;;
69625;SDS011;56847;51.984;5.088;2024-02-28T13:58:26;30.30;;;18.90;;
69625;SDS011;56847;51.984;5.088;2024-02-28T14:01:07;27.48;;;16.88;;
69625;SDS011;56847;51.984;5.088;2024-02-28T14:03:34;27.80;;;17.95;;
69625;SDS011;56847;51.984;5.088;2024-02-28T14:06:02;27.93;;;16.90;;
69625;SDS011;56847;51.984;5.088;2024-02-28T14:08:31;29.42;;;17.40;;
69625;SDS011;56847;51.984;5.088;2024-02-28T14:11:01;32.28;;;17.80;;
69625;SDS011;56847;51.984;5.088;2024-02-28T14:13:38;32.38;;;17.42;;
69625;SDS011;56847;51.984;5.088;2024-02-28T14:16:06;28.23;;;18.17;;
69625;SDS011;56847;51.984;5.088;2024-02-28T14:18:34;30.57;;;18.63;;
69625;SDS011;56847;51.984;5.088;2024-02-28T14:21:01;30.73;;;17.38;;
69625;SDS011;56847;51.984;5.088;2024-02-28T14:23:33;34.75;;;18.83;;
69625;SDS011;56847;51.984;5.088;2024-02-28T14:26:00;28.40;;;17.83;;